sensor_id;sensor_type;location;lat;lon;timestamp;P1;durP1;ratioP1;P2;durP2;ratioP2
16127;SDS011;8168;49.036;7.690;2024-02-14T00:01:25;7.20;;;4.53;;
16127;SDS011;8168;49.036;7.690;2024-02-14T00:03:56;9.13;;;5.30;;
16127;SDS011;8168;49.036;7.690;2024-02-14T00:06:27;7.17;;;5.10;;
16127;SDS011;8168;49.036;7.690;2024-02-14T00:08:57;6.23;;;4.83;;
16127;SDS011;8168;49.036;7.690;2024-02-14T00:11:28;10.10;;;5.40;;
16127;SDS011;8168;49.036;7.690;2024-02-14T00:13:59;12.17;;;6.13;;
16127;SDS011;8168;49.036;7.690;2024-02-14T00:16:30;11.37;;;5.00;;
16127;SDS011;8168;49.036;7.690;2024-02-14T00:19:00;10.30;;;6.00;;
16127;SDS011;8168;49.036;7.690;2024-02-14T00:21:32;10.50;;;6.77;;
16127;SDS011;8168;49.036;7.690;2024-02-14T00:24:04;12.27;;;6.03;;
16127;SDS011;8168;49.036;7.690;2024-02-14T00:26:35;13.53;;;6.50;;
16127;SDS011;8168;49.036;7.690;2024-02-14T00:29:06;15.17;;;8.53;;
16127;SDS011;8168;49.036;7.690;2024-02-14T00:31:37;21.83;;;10.20;;
16127;SDS011;8168;49.036;7.690;2024-02-14T00:34:07;20.13;;;10.47;;
16127;SDS011;8168;49.036;7.690;2024-02-14T00:36:38;24.33;;;10.97;;
16127;SDS011;8168;49.036;7.690;2024-02-14T00:39:09;15.53;;;7.53;;
16127;SDS011;8168;49.036;7.690;2024-02-14T00:41:40;11.13;;;5.93;;
16127;SDS011;8168;49.036;7.690;2024-02-14T00:44:11;12.10;;;5.83;;
16127;SDS011;8168;49.036;7.690;2024-02-14T00:46:42;7.13;;;4.90;;
16127;SDS011;8168;49.036;7.690;2024-02-14T00:49:14;8.13;;;4.63;;
16127;SDS011;8168;49.036;7.690;2024-02-14T00:51:45;8.53;;;4.73;;
16127;SDS011;8168;49.036;7.690;2024-02-14T00:54:15;11.43;;;6.03;;
16127;SDS011;8168;49.036;7.690;2024-02-14T00:56:46;8.37;;;4.53;;
16127;SDS011;8168;49.036;7.690;2024-02-14T00:59:17;6.87;;;3.73;;
16127;SDS011;8168;49.036;7.690;2024-02-14T01:01:48;5.77;;;3.63;;
16127;SDS011;8168;49.036;7.690;2024-02-14T01:04:19;6.50;;;4.10;;
16127;SDS011;8168;49.036;7.690;2024-02-14T01:06:49;7.60;;;4.13;;
16127;SDS011;8168;49.036;7.690;2024-02-14T01:09:21;6.77;;;4.13;;
16127;SDS011;8168;49.036;7.690;2024-02-14T01:11:52;7.73;;;4.57;;
16127;SDS011;8168;49.036;7.690;2024-02-14T01:14:23;7.57;;;3.77;;
16127;SDS011;8168;49.036;7.690;2024-02-14T01:16:53;7.00;;;4.07;;
16127;SDS011;8168;49.036;7.690;2024-02-14T01:19:24;6.33;;;3.57;;
16127;SDS011;8168;49.036;7.690;2024-02-14T01:21:58;5.33;;;3.73;;
16127;SDS011;8168;49.036;7.690;2024-02-14T01:24:29;6.63;;;4.13;;
16127;SDS011;8168;49.036;7.690;2024-02-14T01:27:00;6.63;;;3.77;;
16127;SDS011;8168;49.036;7.690;2024-02-14T01:29:31;2.30;;;1.97;;
16127;SDS011;8168;49.036;7.690;2024-02-14T01:32:01;2.57;;;1.53;;
16127;SDS011;8168;49.036;7.690;2024-02-14T01:34:34;2.63;;;2.17;;
16127;SDS011;8168;49.036;7.690;2024-02-14T01:37:04;4.07;;;2.30;;
16127;SDS011;8168;49.036;7.690;2024-02-14T01:39:36;2.13;;;1.37;;
16127;SDS011;8168;49.036;7.690;2024-02-14T01:42:06;2.37;;;1.63;;
16127;SDS011;8168;49.036;7.690;2024-02-14T01:44:37;3.80;;;1.17;;
16127;SDS011;8168;49.036;7.690;2024-02-14T01:47:08;3.80;;;1.90;;
16127;SDS011;8168;49.036;7.690;2024-02-14T01:49:43;1.40;;;1.30;;
16127;SDS011;8168;49.036;7.690;2024-02-14T01:52:14;2.37;;;1.63;;
16127;SDS011;8168;49.036;7.690;2024-02-14T01:54:45;2.43;;;1.20;;
16127;SDS011;8168;49.036;7.690;2024-02-14T01:57:16;2.87;;;1.40;;
16127;SDS011;8168;49.036;7.690;2024-02-14T01:59:48;1.43;;;1.17;;
16127;SDS011;8168;49.036;7.690;2024-02-14T02:02:19;2.17;;;1.23;;
16127;SDS011;8168;49.036;7.690;2024-02-14T02:04:50;5.27;;;1.40;;
16127;SDS011;8168;49.036;7.690;2024-02-14T02:07:21;3.87;;;1.30;;
16127;SDS011;8168;49.036;7.690;2024-02-14T02:09:52;1.63;;;1.10;;
16127;SDS011;8168;49.036;7.690;2024-02-14T02:12:23;4.47;;;1.17;;
16127;SDS011;8168;49.036;7.690;2024-02-14T02:14:57;1.30;;;1.20;;
16127;SDS011;8168;49.036;7.690;2024-02-14T02:17:28;2.37;;;1.10;;
16127;SDS011;8168;49.036;7.690;2024-02-14T02:19:59;2.13;;;1.30;;
16127;SDS011;8168;49.036;7.690;2024-02-14T02:22:31;1.47;;;0.90;;
16127;SDS011;8168;49.036;7.690;2024-02-14T02:25:05;1.33;;;1.10;;
16127;SDS011;8168;49.036;7.690;2024-02-14T02:27:37;1.73;;;1.10;;
16127;SDS011;8168;49.036;7.690;2024-02-14T02:30:08;5.60;;;1.60;;
16127;SDS011;8168;49.036;7.690;2024-02-14T02:32:41;1.30;;;1.20;;
16127;SDS011;8168;49.036;7.690;2024-02-14T02:35:12;1.73;;;1.07;;
16127;SDS011;8168;49.036;7.690;2024-02-14T02:37:43;4.37;;;1.53;;
16127;SDS011;8168;49.036;7.690;2024-02-14T02:40:16;3.87;;;1.80;;
16127;SDS011;8168;49.036;7.690;2024-02-14T02:42:47;3.40;;;1.20;;
16127;SDS011;8168;49.036;7.690;2024-02-14T02:45:18;1.50;;;1.17;;
16127;SDS011;8168;49.036;7.690;2024-02-14T02:47:48;4.73;;;1.70;;
16127;SDS011;8168;49.036;7.690;2024-02-14T02:50:22;3.07;;;1.30;;
16127;SDS011;8168;49.036;7.690;2024-02-14T02:52:53;4.60;;;1.63;;
16127;SDS011;8168;49.036;7.690;2024-02-14T02:55:24;2.03;;;1.50;;
16127;SDS011;8168;49.036;7.690;2024-02-14T02:57:56;4.47;;;1.40;;
16127;SDS011;8168;49.036;7.690;2024-02-14T03:00:29;4.10;;;1.30;;
16127;SDS011;8168;49.036;7.690;2024-02-14T03:02:59;1.67;;;1.37;;
16127;SDS011;8168;49.036;7.690;2024-02-14T03:05:30;3.07;;;1.50;;
16127;SDS011;8168;49.036;7.690;2024-02-14T03:08:03;1.53;;;1.27;;
16127;SDS011;8168;49.036;7.690;2024-02-14T03:10:34;2.20;;;1.53;;
16127;SDS011;8168;49.036;7.690;2024-02-14T03:13:05;5.23;;;1.77;;
16127;SDS011;8168;49.036;7.690;2024-02-14T03:15:38;2.43;;;1.53;;
16127;SDS011;8168;49.036;7.690;2024-02-14T03:18:09;6.30;;;1.80;;
16127;SDS011;8168;49.036;7.690;2024-02-14T03:20:39;1.93;;;1.57;;
16127;SDS011;8168;49.036;7.690;2024-02-14T03:23:10;3.77;;;2.13;;
16127;SDS011;8168;49.036;7.690;2024-02-14T03:25:41;2.83;;;2.00;;
16127;SDS011;8168;49.036;7.690;2024-02-14T03:28:12;6.30;;;2.83;;
16127;SDS011;8168;49.036;7.690;2024-02-14T03:30:43;3.17;;;2.30;;
16127;SDS011;8168;49.036;7.690;2024-02-14T03:33:13;3.47;;;2.30;;
16127;SDS011;8168;49.036;7.690;2024-02-14T03:35:45;2.27;;;1.90;;
16127;SDS011;8168;49.036;7.690;2024-02-14T03:38:28;3.83;;;2.00;;
16127;SDS011;8168;49.036;7.690;2024-02-14T03:41:01;3.20;;;2.47;;
16127;SDS011;8168;49.036;7.690;2024-02-14T03:43:32;4.33;;;2.73;;
16127;SDS011;8168;49.036;7.690;2024-02-14T03:46:02;3.70;;;2.40;;
16127;SDS011;8168;49.036;7.690;2024-02-14T03:48:33;4.50;;;2.30;;
16127;SDS011;8168;49.036;7.690;2024-02-14T03:51:04;2.90;;;2.50;;
16127;SDS011;8168;49.036;7.690;2024-02-14T03:53:35;5.23;;;2.67;;
16127;SDS011;8168;49.036;7.690;2024-02-14T03:56:07;4.37;;;2.10;;
16127;SDS011;8168;49.036;7.690;2024-02-14T03:58:38;4.60;;;2.83;;
16127;SDS011;8168;49.036;7.690;2024-02-14T04:01:09;3.40;;;2.40;;
16127;SDS011;8168;49.036;7.690;2024-02-14T04:03:40;6.80;;;3.00;;
16127;SDS011;8168;49.036;7.690;2024-02-14T04:06:10;5.00;;;2.90;;
16127;SDS011;8168;49.036;7.690;2024-02-14T04:08:41;5.63;;;3.20;;
16127;SDS011;8168;49.036;7.690;2024-02-14T04:11:12;3.80;;;2.90;;
16127;SDS011;8168;49.036;7.690;2024-02-14T04:13:43;3.37;;;2.60;;
16127;SDS011;8168;49.036;7.690;2024-02-14T04:16:14;6.07;;;3.03;;
16127;SDS011;8168;49.036;7.690;2024-02-14T04:18:44;5.63;;;2.97;;
16127;SDS011;8168;49.036;7.690;2024-02-14T04:21:15;8.90;;;3.60;;
16127;SDS011;8168;49.036;7.690;2024-02-14T04:23:46;7.33;;;4.10;;
16127;SDS011;8168;49.036;7.690;2024-02-14T04:26:20;5.47;;;3.87;;
16127;SDS011;8168;49.036;7.690;2024-02-14T04:28:51;4.77;;;3.23;;
16127;SDS011;8168;49.036;7.690;2024-02-14T04:31:21;5.50;;;2.93;;
16127;SDS011;8168;49.036;7.690;2024-02-14T04:33:52;5.37;;;3.00;;
16127;SDS011;8168;49.036;7.690;2024-02-14T04:36:24;6.83;;;3.00;;
16127;SDS011;8168;49.036;7.690;2024-02-14T04:38:54;4.23;;;3.10;;
16127;SDS011;8168;49.036;7.690;2024-02-14T04:41:27;5.10;;;3.07;;
16127;SDS011;8168;49.036;7.690;2024-02-14T04:43:57;4.87;;;3.40;;
16127;SDS011;8168;49.036;7.690;2024-02-14T04:46:28;4.43;;;2.37;;
16127;SDS011;8168;49.036;7.690;2024-02-14T04:48:59;4.87;;;2.80;;
16127;SDS011;8168;49.036;7.690;2024-02-14T04:51:32;3.93;;;2.57;;
16127;SDS011;8168;49.036;7.690;2024-02-14T04:54:03;5.27;;;2.60;;
16127;SDS011;8168;49.036;7.690;2024-02-14T04:56:35;4.67;;;2.70;;
16127;SDS011;8168;49.036;7.690;2024-02-14T04:59:06;4.97;;;2.67;;
16127;SDS011;8168;49.036;7.690;2024-02-14T05:01:38;3.07;;;2.50;;
16127;SDS011;8168;49.036;7.690;2024-02-14T05:04:12;2.80;;;2.40;;
16127;SDS011;8168;49.036;7.690;2024-02-14T05:06:46;4.47;;;2.53;;
16127;SDS011;8168;49.036;7.690;2024-02-14T05:09:17;3.70;;;2.53;;
16127;SDS011;8168;49.036;7.690;2024-02-14T05:11:48;4.03;;;2.80;;
16127;SDS011;8168;49.036;7.690;2024-02-14T05:14:19;6.40;;;2.77;;
16127;SDS011;8168;49.036;7.690;2024-02-14T05:16:50;4.23;;;2.47;;
16127;SDS011;8168;49.036;7.690;2024-02-14T05:19:20;5.80;;;2.77;;
16127;SDS011;8168;49.036;7.690;2024-02-14T05:21:51;6.40;;;2.90;;
16127;SDS011;8168;49.036;7.690;2024-02-14T05:24:22;6.63;;;3.20;;
16127;SDS011;8168;49.036;7.690;2024-02-14T05:26:53;4.30;;;3.17;;
16127;SDS011;8168;49.036;7.690;2024-02-14T05:29:23;3.60;;;2.60;;
16127;SDS011;8168;49.036;7.690;2024-02-14T05:31:54;4.23;;;2.67;;
16127;SDS011;8168;49.036;7.690;2024-02-14T05:34:25;4.83;;;2.87;;
16127;SDS011;8168;49.036;7.690;2024-02-14T05:36:56;6.63;;;2.93;;
16127;SDS011;8168;49.036;7.690;2024-02-14T05:39:26;4.57;;;3.23;;
16127;SDS011;8168;49.036;7.690;2024-02-14T05:41:57;5.20;;;2.53;;
16127;SDS011;8168;49.036;7.690;2024-02-14T05:44:27;5.13;;;2.30;;
16127;SDS011;8168;49.036;7.690;2024-02-14T05:47:00;3.57;;;2.50;;
16127;SDS011;8168;49.036;7.690;2024-02-14T05:49:30;3.50;;;1.60;;
16127;SDS011;8168;49.036;7.690;2024-02-14T05:52:01;3.50;;;1.90;;
16127;SDS011;8168;49.036;7.690;2024-02-14T05:54:32;4.07;;;1.93;;
16127;SDS011;8168;49.036;7.690;2024-02-14T05:57:03;3.80;;;1.90;;
16127;SDS011;8168;49.036;7.690;2024-02-14T05:59:34;2.60;;;1.80;;
16127;SDS011;8168;49.036;7.690;2024-02-14T06:02:05;2.97;;;1.27;;
16127;SDS011;8168;49.036;7.690;2024-02-14T06:04:38;4.70;;;3.00;;
16127;SDS011;8168;49.036;7.690;2024-02-14T06:07:08;3.33;;;2.07;;
16127;SDS011;8168;49.036;7.690;2024-02-14T06:09:41;1.97;;;1.53;;
16127;SDS011;8168;49.036;7.690;2024-02-14T06:12:12;8.20;;;2.50;;
16127;SDS011;8168;49.036;7.690;2024-02-14T06:14:42;4.93;;;2.03;;
16127;SDS011;8168;49.036;7.690;2024-02-14T06:17:13;7.40;;;2.37;;
16127;SDS011;8168;49.036;7.690;2024-02-14T06:19:44;4.87;;;2.00;;
16127;SDS011;8168;49.036;7.690;2024-02-14T06:22:14;7.97;;;2.13;;
16127;SDS011;8168;49.036;7.690;2024-02-14T06:24:45;2.67;;;1.83;;
16127;SDS011;8168;49.036;7.690;2024-02-14T06:27:18;6.07;;;1.53;;
16127;SDS011;8168;49.036;7.690;2024-02-14T06:29:49;6.10;;;2.00;;
16127;SDS011;8168;49.036;7.690;2024-02-14T06:32:19;3.50;;;1.50;;
16127;SDS011;8168;49.036;7.690;2024-02-14T06:34:50;3.20;;;1.47;;
16127;SDS011;8168;49.036;7.690;2024-02-14T06:37:21;3.33;;;1.63;;
16127;SDS011;8168;49.036;7.690;2024-02-14T06:39:51;3.47;;;2.03;;
16127;SDS011;8168;49.036;7.690;2024-02-14T06:42:22;4.67;;;2.20;;
16127;SDS011;8168;49.036;7.690;2024-02-14T06:44:53;2.30;;;1.47;;
16127;SDS011;8168;49.036;7.690;2024-02-14T06:47:23;5.27;;;1.67;;
16127;SDS011;8168;49.036;7.690;2024-02-14T06:49:59;2.50;;;1.80;;
16127;SDS011;8168;49.036;7.690;2024-02-14T06:52:30;3.80;;;1.77;;
16127;SDS011;8168;49.036;7.690;2024-02-14T06:55:00;4.27;;;1.80;;
16127;SDS011;8168;49.036;7.690;2024-02-14T06:57:33;2.13;;;1.30;;
16127;SDS011;8168;49.036;7.690;2024-02-14T07:00:04;2.80;;;1.57;;
16127;SDS011;8168;49.036;7.690;2024-02-14T07:02:36;4.20;;;1.70;;
16127;SDS011;8168;49.036;7.690;2024-02-14T07:05:07;2.10;;;1.73;;
16127;SDS011;8168;49.036;7.690;2024-02-14T07:07:38;2.30;;;1.67;;
16127;SDS011;8168;49.036;7.690;2024-02-14T07:10:09;2.57;;;1.37;;
16127;SDS011;8168;49.036;7.690;2024-02-14T07:12:40;2.63;;;1.77;;
16127;SDS011;8168;49.036;7.690;2024-02-14T07:15:11;3.53;;;1.87;;
16127;SDS011;8168;49.036;7.690;2024-02-14T07:17:41;2.57;;;1.80;;
16127;SDS011;8168;49.036;7.690;2024-02-14T07:20:12;4.03;;;1.80;;
16127;SDS011;8168;49.036;7.690;2024-02-14T07:22:43;3.30;;;1.40;;
16127;SDS011;8168;49.036;7.690;2024-02-14T07:25:17;2.07;;;1.60;;
16127;SDS011;8168;49.036;7.690;2024-02-14T07:27:48;3.03;;;1.53;;
16127;SDS011;8168;49.036;7.690;2024-02-14T07:30:19;2.73;;;1.50;;
16127;SDS011;8168;49.036;7.690;2024-02-14T07:32:50;1.90;;;1.37;;
16127;SDS011;8168;49.036;7.690;2024-02-14T07:35:21;2.23;;;1.37;;
16127;SDS011;8168;49.036;7.690;2024-02-14T07:37:52;2.20;;;1.50;;
16127;SDS011;8168;49.036;7.690;2024-02-14T07:40:23;2.13;;;1.53;;
16127;SDS011;8168;49.036;7.690;2024-02-14T07:42:53;2.00;;;1.10;;
16127;SDS011;8168;49.036;7.690;2024-02-14T07:45:24;5.20;;;1.70;;
16127;SDS011;8168;49.036;7.690;2024-02-14T07:47:54;2.97;;;1.63;;
16127;SDS011;8168;49.036;7.690;2024-02-14T07:50:25;1.87;;;1.70;;
16127;SDS011;8168;49.036;7.690;2024-02-14T07:52:58;5.00;;;1.40;;
16127;SDS011;8168;49.036;7.690;2024-02-14T07:55:29;2.50;;;1.30;;
16127;SDS011;8168;49.036;7.690;2024-02-14T07:57:59;4.37;;;1.67;;
16127;SDS011;8168;49.036;7.690;2024-02-14T08:00:30;3.47;;;1.50;;
16127;SDS011;8168;49.036;7.690;2024-02-14T08:03:01;2.67;;;1.60;;
16127;SDS011;8168;49.036;7.690;2024-02-14T08:05:33;2.93;;;1.57;;
16127;SDS011;8168;49.036;7.690;2024-02-14T08:08:04;2.50;;;1.40;;
16127;SDS011;8168;49.036;7.690;2024-02-14T08:10:35;3.23;;;1.40;;
16127;SDS011;8168;49.036;7.690;2024-02-14T08:13:06;2.83;;;1.67;;
16127;SDS011;8168;49.036;7.690;2024-02-14T08:15:37;1.87;;;1.30;;
16127;SDS011;8168;49.036;7.690;2024-02-14T08:18:07;3.13;;;1.60;;
16127;SDS011;8168;49.036;7.690;2024-02-14T08:20:38;3.30;;;1.70;;
16127;SDS011;8168;49.036;7.690;2024-02-14T08:23:09;1.87;;;1.60;;
16127;SDS011;8168;49.036;7.690;2024-02-14T08:25:39;4.93;;;1.77;;
16127;SDS011;8168;49.036;7.690;2024-02-14T08:28:11;3.67;;;1.60;;
16127;SDS011;8168;49.036;7.690;2024-02-14T08:30:42;0.70;;;0.70;;
16127;SDS011;8168;49.036;7.690;2024-02-14T08:33:12;1.90;;;1.70;;
16127;SDS011;8168;49.036;7.690;2024-02-14T08:35:43;5.43;;;2.30;;
16127;SDS011;8168;49.036;7.690;2024-02-14T08:38:13;3.03;;;1.60;;
16127;SDS011;8168;49.036;7.690;2024-02-14T08:40:44;2.27;;;1.70;;
16127;SDS011;8168;49.036;7.690;2024-02-14T08:43:15;2.07;;;1.70;;
16127;SDS011;8168;49.036;7.690;2024-02-14T08:45:45;1.60;;;1.50;;
16127;SDS011;8168;49.036;7.690;2024-02-14T08:48:16;1.60;;;1.40;;
16127;SDS011;8168;49.036;7.690;2024-02-14T08:50:47;3.17;;;1.60;;
16127;SDS011;8168;49.036;7.690;2024-02-14T08:53:18;2.60;;;1.57;;
16127;SDS011;8168;49.036;7.690;2024-02-14T08:55:48;1.80;;;1.50;;
16127;SDS011;8168;49.036;7.690;2024-02-14T08:58:19;1.60;;;1.40;;
16127;SDS011;8168;49.036;7.690;2024-02-14T09:00:50;2.37;;;1.60;;
16127;SDS011;8168;49.036;7.690;2024-02-14T09:03:23;1.47;;;1.37;;
16127;SDS011;8168;49.036;7.690;2024-02-14T09:05:54;1.67;;;1.50;;
16127;SDS011;8168;49.036;7.690;2024-02-14T09:08:26;2.20;;;1.50;;
16127;SDS011;8168;49.036;7.690;2024-02-14T09:10:58;4.10;;;1.40;;
16127;SDS011;8168;49.036;7.690;2024-02-14T09:13:29;2.47;;;1.20;;
16127;SDS011;8168;49.036;7.690;2024-02-14T09:15:59;4.43;;;1.57;;
16127;SDS011;8168;49.036;7.690;2024-02-14T09:18:31;1.87;;;1.47;;
16127;SDS011;8168;49.036;7.690;2024-02-14T09:21:02;2.53;;;1.20;;
16127;SDS011;8168;49.036;7.690;2024-02-14T09:23:36;1.70;;;1.50;;
16127;SDS011;8168;49.036;7.690;2024-02-14T09:26:10;1.93;;;1.60;;
16127;SDS011;8168;49.036;7.690;2024-02-14T09:28:40;1.67;;;1.50;;
16127;SDS011;8168;49.036;7.690;2024-02-14T09:31:11;1.93;;;1.60;;
16127;SDS011;8168;49.036;7.690;2024-02-14T09:33:42;2.20;;;1.67;;
16127;SDS011;8168;49.036;7.690;2024-02-14T09:36:13;2.13;;;1.70;;
16127;SDS011;8168;49.036;7.690;2024-02-14T09:38:44;3.43;;;1.77;;
16127;SDS011;8168;49.036;7.690;2024-02-14T09:41:21;3.77;;;1.60;;
16127;SDS011;8168;49.036;7.690;2024-02-14T09:44:00;3.17;;;1.57;;
16127;SDS011;8168;49.036;7.690;2024-02-14T09:46:31;1.53;;;1.43;;
16127;SDS011;8168;49.036;7.690;2024-02-14T09:49:02;2.20;;;1.67;;
16127;SDS011;8168;49.036;7.690;2024-02-14T09:51:34;4.17;;;1.57;;
16127;SDS011;8168;49.036;7.690;2024-02-14T09:54:04;2.00;;;1.40;;
16127;SDS011;8168;49.036;7.690;2024-02-14T09:56:35;2.37;;;1.30;;
16127;SDS011;8168;49.036;7.690;2024-02-14T09:59:06;1.87;;;1.43;;
16127;SDS011;8168;49.036;7.690;2024-02-14T10:01:38;2.03;;;1.60;;
16127;SDS011;8168;49.036;7.690;2024-02-14T10:04:09;2.40;;;1.80;;
16127;SDS011;8168;49.036;7.690;2024-02-14T10:06:40;2.07;;;1.23;;
16127;SDS011;8168;49.036;7.690;2024-02-14T10:09:11;1.17;;;1.00;;
16127;SDS011;8168;49.036;7.690;2024-02-14T10:11:42;4.30;;;1.60;;
16127;SDS011;8168;49.036;7.690;2024-02-14T10:14:15;1.13;;;1.03;;
16127;SDS011;8168;49.036;7.690;2024-02-14T10:16:46;2.30;;;1.37;;
16127;SDS011;8168;49.036;7.690;2024-02-14T10:19:17;2.37;;;1.60;;
16127;SDS011;8168;49.036;7.690;2024-02-14T10:24:29;2.93;;;1.50;;
16127;SDS011;8168;49.036;7.690;2024-02-14T10:27:00;1.90;;;1.50;;
16127;SDS011;8168;49.036;7.690;2024-02-14T10:29:31;2.57;;;1.70;;
16127;SDS011;8168;49.036;7.690;2024-02-14T10:32:02;3.17;;;2.07;;
16127;SDS011;8168;49.036;7.690;2024-02-14T10:34:34;1.83;;;1.60;;
16127;SDS011;8168;49.036;7.690;2024-02-14T10:37:08;2.63;;;1.70;;
16127;SDS011;8168;49.036;7.690;2024-02-14T10:39:40;2.40;;;1.57;;
16127;SDS011;8168;49.036;7.690;2024-02-14T10:42:12;1.93;;;1.50;;
16127;SDS011;8168;49.036;7.690;2024-02-14T10:44:43;3.77;;;1.90;;
16127;SDS011;8168;49.036;7.690;2024-02-14T10:47:16;4.50;;;1.40;;
16127;SDS011;8168;49.036;7.690;2024-02-14T10:49:50;2.17;;;1.80;;
16127;SDS011;8168;49.036;7.690;2024-02-14T10:52:22;2.00;;;1.53;;
16127;SDS011;8168;49.036;7.690;2024-02-14T10:54:55;2.23;;;1.53;;
16127;SDS011;8168;49.036;7.690;2024-02-14T10:57:29;2.93;;;1.60;;
16127;SDS011;8168;49.036;7.690;2024-02-14T11:00:05;2.03;;;1.60;;
16127;SDS011;8168;49.036;7.690;2024-02-14T11:02:39;2.47;;;1.40;;
16127;SDS011;8168;49.036;7.690;2024-02-14T11:05:12;2.00;;;1.63;;
16127;SDS011;8168;49.036;7.690;2024-02-14T11:07:46;2.20;;;1.37;;
16127;SDS011;8168;49.036;7.690;2024-02-14T11:10:19;3.63;;;1.27;;
16127;SDS011;8168;49.036;7.690;2024-02-14T11:12:51;2.40;;;1.50;;
16127;SDS011;8168;49.036;7.690;2024-02-14T11:15:24;1.87;;;1.50;;
16127;SDS011;8168;49.036;7.690;2024-02-14T11:18:03;2.37;;;1.53;;
16127;SDS011;8168;49.036;7.690;2024-02-14T11:20:34;1.33;;;1.23;;
16127;SDS011;8168;49.036;7.690;2024-02-14T11:23:06;1.33;;;1.07;;
16127;SDS011;8168;49.036;7.690;2024-02-14T11:25:41;1.23;;;1.13;;
16127;SDS011;8168;49.036;7.690;2024-02-14T11:28:14;4.83;;;1.30;;
16127;SDS011;8168;49.036;7.690;2024-02-14T11:30:47;4.67;;;2.63;;
16127;SDS011;8168;49.036;7.690;2024-02-14T11:35:52;2.83;;;2.10;;
16127;SDS011;8168;49.036;7.690;2024-02-14T11:38:25;4.47;;;1.80;;
16127;SDS011;8168;49.036;7.690;2024-02-14T11:40:56;2.70;;;1.90;;
16127;SDS011;8168;49.036;7.690;2024-02-14T11:43:26;1.30;;;1.20;;
16127;SDS011;8168;49.036;7.690;2024-02-14T11:45:57;2.13;;;1.63;;
16127;SDS011;8168;49.036;7.690;2024-02-14T11:48:28;1.60;;;1.47;;
16127;SDS011;8168;49.036;7.690;2024-02-14T11:51:00;1.33;;;1.20;;
16127;SDS011;8168;49.036;7.690;2024-02-14T11:53:30;1.30;;;1.20;;
16127;SDS011;8168;49.036;7.690;2024-02-14T11:56:02;1.70;;;1.60;;
16127;SDS011;8168;49.036;7.690;2024-02-14T11:58:32;1.60;;;1.50;;
16127;SDS011;8168;49.036;7.690;2024-02-14T12:01:04;1.67;;;1.20;;
16127;SDS011;8168;49.036;7.690;2024-02-14T12:03:35;1.70;;;1.20;;
16127;SDS011;8168;49.036;7.690;2024-02-14T12:06:09;1.83;;;1.63;;
16127;SDS011;8168;49.036;7.690;2024-02-14T12:08:40;1.30;;;1.20;;
16127;SDS011;8168;49.036;7.690;2024-02-14T12:11:11;0.80;;;0.80;;
16127;SDS011;8168;49.036;7.690;2024-02-14T12:13:42;1.30;;;1.20;;
16127;SDS011;8168;49.036;7.690;2024-02-14T12:16:13;0.83;;;0.80;;
16127;SDS011;8168;49.036;7.690;2024-02-14T12:18:45;1.53;;;1.10;;
16127;SDS011;8168;49.036;7.690;2024-02-14T12:21:16;0.70;;;0.70;;
16127;SDS011;8168;49.036;7.690;2024-02-14T12:23:47;2.10;;;1.00;;
16127;SDS011;8168;49.036;7.690;2024-02-14T12:26:18;1.00;;;1.00;;
16127;SDS011;8168;49.036;7.690;2024-02-14T12:28:51;1.77;;;1.20;;
16127;SDS011;8168;49.036;7.690;2024-02-14T12:31:22;0.93;;;0.93;;
16127;SDS011;8168;49.036;7.690;2024-02-14T12:33:53;0.77;;;0.77;;
16127;SDS011;8168;49.036;7.690;2024-02-14T12:36:26;0.90;;;0.80;;
16127;SDS011;8168;49.036;7.690;2024-02-14T12:38:57;1.20;;;1.10;;
16127;SDS011;8168;49.036;7.690;2024-02-14T12:41:29;0.80;;;0.80;;
16127;SDS011;8168;49.036;7.690;2024-02-14T12:44:00;0.80;;;0.80;;
16127;SDS011;8168;49.036;7.690;2024-02-14T12:46:31;2.17;;;1.03;;
16127;SDS011;8168;49.036;7.690;2024-02-14T12:49:03;1.00;;;0.90;;
16127;SDS011;8168;49.036;7.690;2024-02-14T12:51:34;1.00;;;0.80;;
16127;SDS011;8168;49.036;7.690;2024-02-14T12:54:08;0.80;;;0.80;;
16127;SDS011;8168;49.036;7.690;2024-02-14T12:56:42;0.73;;;0.73;;
16127;SDS011;8168;49.036;7.690;2024-02-14T12:59:17;1.37;;;1.27;;
16127;SDS011;8168;49.036;7.690;2024-02-14T13:01:50;0.80;;;0.80;;
16127;SDS011;8168;49.036;7.690;2024-02-14T13:04:21;1.10;;;1.00;;
16127;SDS011;8168;49.036;7.690;2024-02-14T13:06:52;1.27;;;1.00;;
16127;SDS011;8168;49.036;7.690;2024-02-14T13:09:24;1.90;;;1.80;;
16127;SDS011;8168;49.036;7.690;2024-02-14T13:11:54;2.37;;;1.80;;
16127;SDS011;8168;49.036;7.690;2024-02-14T13:14:25;1.00;;;1.00;;
16127;SDS011;8168;49.036;7.690;2024-02-14T13:16:56;0.90;;;0.90;;
16127;SDS011;8168;49.036;7.690;2024-02-14T13:19:27;1.20;;;1.10;;
16127;SDS011;8168;49.036;7.690;2024-02-14T13:21:58;0.93;;;0.80;;
16127;SDS011;8168;49.036;7.690;2024-02-14T13:24:29;1.57;;;1.10;;
16127;SDS011;8168;49.036;7.690;2024-02-14T13:26:59;1.20;;;1.10;;
16127;SDS011;8168;49.036;7.690;2024-02-14T13:29:30;0.70;;;0.70;;
16127;SDS011;8168;49.036;7.690;2024-02-14T13:32:01;1.53;;;0.90;;
16127;SDS011;8168;49.036;7.690;2024-02-14T13:34:32;1.10;;;1.00;;
16127;SDS011;8168;49.036;7.690;2024-02-14T13:37:03;0.80;;;0.80;;
16127;SDS011;8168;49.036;7.690;2024-02-14T13:39:35;0.83;;;0.80;;
16127;SDS011;8168;49.036;7.690;2024-02-14T13:42:06;1.23;;;1.10;;
16127;SDS011;8168;49.036;7.690;2024-02-14T13:44:37;1.80;;;1.70;;
16127;SDS011;8168;49.036;7.690;2024-02-14T13:47:08;1.83;;;1.20;;
16127;SDS011;8168;49.036;7.690;2024-02-14T13:49:39;0.80;;;0.80;;
16127;SDS011;8168;49.036;7.690;2024-02-14T13:52:10;1.07;;;0.93;;
16127;SDS011;8168;49.036;7.690;2024-02-14T13:54:41;0.70;;;0.70;;
16127;SDS011;8168;49.036;7.690;2024-02-14T13:57:12;0.60;;;0.60;;
16127;SDS011;8168;49.036;7.690;2024-02-14T13:59:42;1.80;;;1.53;;
16127;SDS011;8168;49.036;7.690;2024-02-14T14:02:13;2.40;;;1.33;;
16127;SDS011;8168;49.036;7.690;2024-02-14T14:04:43;1.80;;;1.20;;
16127;SDS011;8168;49.036;7.690;2024-02-14T14:07:14;1.47;;;1.03;;
16127;SDS011;8168;49.036;7.690;2024-02-14T14:09:45;1.57;;;1.20;;
16127;SDS011;8168;49.036;7.690;2024-02-14T14:12:17;2.50;;;2.20;;
16127;SDS011;8168;49.036;7.690;2024-02-14T14:14:47;1.30;;;1.20;;
16127;SDS011;8168;49.036;7.690;2024-02-14T14:17:18;1.70;;;1.60;;
16127;SDS011;8168;49.036;7.690;2024-02-14T14:19:49;2.10;;;1.60;;
16127;SDS011;8168;49.036;7.690;2024-02-14T14:22:20;1.03;;;1.00;;
16127;SDS011;8168;49.036;7.690;2024-02-14T14:24:51;1.63;;;1.00;;
16127;SDS011;8168;49.036;7.690;2024-02-14T14:27:21;1.50;;;1.40;;
16127;SDS011;8168;49.036;7.690;2024-02-14T14:29:52;1.40;;;0.90;;
16127;SDS011;8168;49.036;7.690;2024-02-14T14:32:23;1.30;;;1.20;;
16127;SDS011;8168;49.036;7.690;2024-02-14T14:34:54;1.03;;;1.00;;
16127;SDS011;8168;49.036;7.690;2024-02-14T14:37:25;1.10;;;1.00;;
16127;SDS011;8168;49.036;7.690;2024-02-14T14:39:56;1.00;;;0.80;;
16127;SDS011;8168;49.036;7.690;2024-02-14T14:42:27;0.70;;;0.70;;
16127;SDS011;8168;49.036;7.690;2024-02-14T14:44:58;1.20;;;1.10;;
16127;SDS011;8168;49.036;7.690;2024-02-14T14:47:29;1.20;;;1.10;;
16127;SDS011;8168;49.036;7.690;2024-02-14T14:49:59;0.77;;;0.77;;
16127;SDS011;8168;49.036;7.690;2024-02-14T14:52:30;0.90;;;0.90;;
16127;SDS011;8168;49.036;7.690;2024-02-14T14:55:00;1.20;;;0.87;;
16127;SDS011;8168;49.036;7.690;2024-02-14T14:57:31;3.03;;;2.13;;
16127;SDS011;8168;49.036;7.690;2024-02-14T15:00:02;0.90;;;0.90;;
16127;SDS011;8168;49.036;7.690;2024-02-14T15:02:33;0.50;;;0.50;;
16127;SDS011;8168;49.036;7.690;2024-02-14T15:05:04;0.60;;;0.60;;
16127;SDS011;8168;49.036;7.690;2024-02-14T15:07:35;1.03;;;0.83;;
16127;SDS011;8168;49.036;7.690;2024-02-14T15:10:05;0.93;;;0.80;;
16127;SDS011;8168;49.036;7.690;2024-02-14T15:12:38;0.60;;;0.60;;
16127;SDS011;8168;49.036;7.690;2024-02-14T15:15:08;0.83;;;0.83;;
16127;SDS011;8168;49.036;7.690;2024-02-14T15:17:39;0.80;;;0.70;;
16127;SDS011;8168;49.036;7.690;2024-02-14T15:20:10;1.37;;;0.90;;
16127;SDS011;8168;49.036;7.690;2024-02-14T15:22:41;1.07;;;0.77;;
16127;SDS011;8168;49.036;7.690;2024-02-14T15:25:12;0.80;;;0.80;;
16127;SDS011;8168;49.036;7.690;2024-02-14T15:27:42;0.53;;;0.53;;
16127;SDS011;8168;49.036;7.690;2024-02-14T15:30:24;1.10;;;1.00;;